CheckWX is a tool to help pilots better visualize weather data.  It is not intended as a substitute for an official pre-flight weather briefing.

20:51:22 UTC

KBDH METAR
Willmar Municipal-John L Rice Field Airport
Willmar, Minnesota, USA
Current

12 mins ago

KBDH 262039Z AUTO 00000KT 10SM CLR 31/12 A3002 RMK AO2
Observed
Jun-26 @ 20:39 UTC
Visibility
10 SM
Flight Rules
VFR
Cloud Levels
  • Clear skies
Temperature
31°C / 88°F
Dewpoint
12°C / 54°F
Humidity
31%
Altimeter
30.02" Hg
Pressure
1016.62 hPa
Previous

16 mins ago

KBDH 262035Z AUTO 18003KT 10SM CLR 30/12 A3002 RMK AO2
Observed
Jun-26 @ 20:35 UTC
Wind
  • 180° at 3 KTS
Visibility
10 SM
Flight Rules
VFR
Cloud Levels
  • Clear skies
Temperature
30°C / 86°F
Dewpoint
12°C / 54°F
Humidity
33%
Altimeter
30.02" Hg
Pressure
1016.62 hPa
Previous

35 mins ago

KBDH 262016Z AUTO 18003KT 10SM CLR 29/11 A3002 RMK AO2
Observed
Jun-26 @ 20:16 UTC
Wind
  • 180° at 3 KTS
Visibility
10 SM
Flight Rules
VFR
Cloud Levels
  • Clear skies
Temperature
29°C / 84°F
Dewpoint
11°C / 52°F
Humidity
33%
Altimeter
30.02" Hg
Pressure
1016.62 hPa